Kezdőlap
METAR-TAF:

METAR-TAF

Repülőterek :

L.O. Simenstad Municipal Airport

Osceola, Wisconsin, Amerikai Egyesült Államok

földrajzi szélesség: 45-18-31N, földrajzi hosszúság: 092-41-24W, magasság: 275 m

Jelenlegi meteorológiai megfigyelések

A jelentés 14 perccel ezelõtt készült, 06:55 UTC
Keleti szél 4 kt
Hőmérséklet 20°C
Páratartalom 100%
Légköri nyomás 1013 hPa
Látótávolság: 16.1 km
Szórványos felhőzet 7500 lábon
Szórványos felhőzet 8500 lábon
Borult 12000 lábon
enyhe esõ

METAR: KOEO 260655Z AUTO 09004KT 10SM -RA SCT075 SCT085 OVC120 20/20 A2991 RMK AO2 P0003 T01980198

Idő: 02:09 (07:09 UTC)


TAF: hiányzik

Meteorológiai megfigyelések és előrejelzések több, mint 4000 repülőtéren (METAR és TAF jelentéseket).

A térképen piros és sárga pontok jelzik az elérhető meteorológiai állomásokat.

Mozgassa az egeret a pont fölött, hogy megjelenjen az állomás neve.

Azután kattintson az időjárási megfigyelések és előrejelzések megtekintéséhez.

A térkép megváltoztatása: kattintson a fekete keresztel jelölt zöld gombra ráközelítéshez, a vonallal jelölt zöld gombra távolításhoz, vagy a zöld nyilakra a szomszédos térképek eléréséhez.


METAR-TAF: